createdAt,value
2023-04-14T00:01:25.475Z,30.90
2023-04-14T00:06:26.627Z,33.20
2023-04-14T00:11:27.653Z,34.30
2023-04-14T00:16:32.177Z,32.40
2023-04-14T00:21:33.118Z,35.90
2023-04-14T00:26:34.186Z,39.20
2023-04-14T00:31:35.361Z,38.00
2023-04-14T00:36:36.437Z,37.00
2023-04-14T00:41:37.358Z,40.50
2023-04-14T00:46:40.155Z,30.60
2023-04-14T00:51:45.088Z,37.10
2023-04-14T00:56:46.583Z,31.30
2023-04-14T01:01:47.614Z,37.00
2023-04-14T01:06:48.601Z,34.30
2023-04-14T01:12:12.936Z,41.10
2023-04-14T01:17:31.812Z,41.50
2023-04-14T01:22:38.398Z,37.30
2023-04-14T01:28:04.569Z,37.50
2023-04-14T01:33:10.347Z,39.30
2023-04-14T01:38:18.528Z,44.20
2023-04-14T01:43:26.395Z,50.90
2023-04-14T01:48:28.366Z,59.00
2023-04-14T01:53:32.042Z,53.00
2023-04-14T01:58:35.576Z,55.80
2023-04-14T02:03:38.129Z,52.00
2023-04-14T02:08:41.522Z,59.40
2023-04-14T02:13:43.096Z,53.80
2023-04-14T02:18:45.671Z,52.30
2023-04-14T02:23:46.732Z,66.00
2023-04-14T02:29:06.194Z,50.20
2023-04-14T02:34:10.572Z,41.60
2023-04-14T02:39:17.043Z,40.70
2023-04-14T02:44:21.931Z,37.10
2023-04-14T02:49:24.278Z,36.10
2023-04-14T02:54:26.531Z,39.10
2023-04-14T02:59:29.308Z,41.00
2023-04-14T03:04:37.493Z,37.10
2023-04-14T03:09:42.050Z,39.30
2023-04-14T03:14:44.027Z,38.20
2023-04-14T03:19:47.825Z,44.10
2023-04-14T03:24:50.188Z,35.20
2023-04-14T03:29:54.709Z,38.30
2023-04-14T03:34:58.180Z,42.20
2023-04-14T03:40:05.027Z,38.50
2023-04-14T03:45:07.452Z,40.10
2023-04-14T03:50:10.686Z,40.70
2023-04-14T03:55:15.052Z,50.60
2023-04-14T04:00:19.271Z,37.60
2023-04-14T04:05:21.449Z,34.60
2023-04-14T04:10:23.096Z,32.00
2023-04-14T04:15:28.242Z,37.80
2023-04-14T04:20:31.864Z,36.90
2023-04-14T04:25:36.610Z,32.40
2023-04-14T04:30:46.616Z,34.90
2023-04-14T04:35:48.524Z,37.80
2023-04-14T04:40:50.074Z,34.50
2023-04-14T04:45:58.553Z,38.20
2023-04-14T04:51:00.066Z,24.90
2023-04-14T04:56:01.761Z,23.10
2023-04-14T05:01:09.813Z,28.20
2023-04-14T05:06:11.702Z,35.60
2023-04-14T05:11:12.851Z,36.40
2023-04-14T05:16:14.486Z,37.10
2023-04-14T05:21:15.456Z,28.70
2023-04-14T05:26:39.030Z,38.50
2023-04-14T05:31:37.352Z,38.50
2023-04-14T05:36:38.326Z,38.70
2023-04-14T05:41:39.268Z,29.50
2023-04-14T05:46:40.720Z,29.40
2023-04-14T05:51:42.168Z,36.90
2023-04-14T05:56:43.140Z,36.10
2023-04-14T06:01:44.336Z,25.50
2023-04-14T06:06:45.480Z,41.40
2023-04-14T06:11:46.433Z,34.00
2023-04-14T06:16:47.549Z,27.00
2023-04-14T06:21:48.673Z,23.00
2023-04-14T06:26:49.714Z,28.00
2023-04-14T06:31:51.262Z,23.50
2023-04-14T06:36:52.442Z,31.80
2023-04-14T06:41:53.577Z,29.00
2023-04-14T06:46:56.344Z,25.60
2023-04-14T06:51:58.783Z,27.70
2023-04-14T06:57:01.291Z,31.30
2023-04-14T07:02:02.920Z,28.80
2023-04-14T07:07:04.189Z,24.80
2023-04-14T07:12:05.441Z,31.50
2023-04-14T07:17:06.451Z,20.90
2023-04-14T07:22:08.318Z,32.90
2023-04-14T07:27:18.718Z,35.20
2023-04-14T07:32:19.691Z,34.80
2023-04-14T07:37:20.947Z,20.00
2023-04-14T07:42:21.927Z,37.00
2023-04-14T07:47:23.001Z,35.70
2023-04-14T07:52:24.039Z,74.90
2023-04-14T07:57:24.980Z,36.90
2023-04-14T08:02:26.521Z,33.60
2023-04-14T08:07:27.951Z,32.30
2023-04-14T08:12:29.050Z,48.90
2023-04-14T08:17:30.550Z,31.50
2023-04-14T08:22:31.665Z,34.90
2023-04-14T08:27:32.671Z,31.70
2023-04-14T08:32:33.646Z,37.10
2023-04-14T08:37:34.874Z,33.90
2023-04-14T08:42:35.819Z,35.10
2023-04-14T08:47:39.146Z,29.80
2023-04-14T08:52:40.938Z,29.90
2023-04-14T08:57:43.396Z,30.00
2023-04-14T09:02:46.385Z,18.00
2023-04-14T09:12:49.346Z,27.00
2023-04-14T09:17:50.544Z,29.70
2023-04-14T09:22:52.752Z,25.80
2023-04-14T09:27:54.101Z,47.90
2023-04-14T09:32:56.209Z,28.10
2023-04-14T09:37:57.166Z,32.50
2023-04-14T09:42:59.996Z,24.80
2023-04-14T09:53:08.605Z,24.20
2023-04-14T09:58:09.996Z,22.90
2023-04-14T10:03:11.141Z,23.60
2023-04-14T10:08:12.821Z,26.50
2023-04-14T10:13:15.303Z,25.00
2023-04-14T10:18:16.881Z,25.00
2023-04-14T10:23:18.026Z,23.90
2023-04-14T10:28:19.343Z,24.60
2023-04-14T10:33:20.932Z,22.40
2023-04-14T10:38:22.319Z,28.20
2023-04-14T10:43:27.411Z,38.10
2023-04-14T10:48:40.523Z,26.80
2023-04-14T10:53:46.814Z,30.80
2023-04-14T10:58:58.316Z,21.20
2023-04-14T11:04:18.786Z,14.20
2023-04-14T11:09:31.360Z,15.00
2023-04-14T11:14:35.178Z,22.80
2023-04-14T11:19:36.179Z,15.70
2023-04-14T11:24:38.011Z,11.20
2023-04-14T11:29:39.150Z,8.30
2023-04-14T11:34:40.349Z,9.90
2023-04-14T11:39:41.429Z,11.60
2023-04-14T11:44:42.402Z,12.30
2023-04-14T11:49:43.354Z,19.90
2023-04-14T11:54:44.489Z,12.30
2023-04-14T11:59:46.970Z,10.70
2023-04-14T12:04:50.639Z,6.60
2023-04-14T12:09:52.054Z,6.10
2023-04-14T12:14:53.199Z,8.60
2023-04-14T12:19:54.263Z,9.00
2023-04-14T12:24:56.377Z,7.80
2023-04-14T12:29:57.782Z,7.70
2023-04-14T12:35:00.669Z,10.30
2023-04-14T12:45:07.665Z,8.70
2023-04-14T12:50:27.352Z,12.80
2023-04-14T12:55:30.864Z,11.90
2023-04-14T13:00:31.883Z,5.70
2023-04-14T13:05:33.000Z,11.80
2023-04-14T13:10:33.960Z,7.90
2023-04-14T13:16:14.501Z,10.30
2023-04-14T13:20:56.895Z,18.30
2023-04-14T13:25:58.812Z,10.00
2023-04-14T13:31:00.317Z,8.80
2023-04-14T13:36:02.393Z,13.20
2023-04-14T13:41:03.730Z,8.40
2023-04-14T13:46:04.735Z,12.40
2023-04-14T13:51:05.782Z,5.90
2023-04-14T13:56:06.807Z,5.90
2023-04-14T14:01:10.069Z,7.60
2023-04-14T14:06:13.474Z,5.10
2023-04-14T14:11:14.900Z,7.00
2023-04-14T14:16:33.230Z,5.60
2023-04-14T14:21:37.572Z,8.40
2023-04-14T14:26:38.631Z,7.40
2023-04-14T14:31:39.672Z,9.00
2023-04-14T14:36:40.802Z,5.30
2023-04-14T14:41:41.855Z,6.30
2023-04-14T14:46:45.152Z,12.60
2023-04-14T14:51:46.315Z,7.80
2023-04-14T14:56:47.226Z,7.80
2023-04-14T15:01:48.277Z,7.00
2023-04-14T15:06:49.622Z,7.00
2023-04-14T15:11:50.697Z,10.00
2023-04-14T15:16:52.613Z,11.60
2023-04-14T15:21:53.954Z,8.70
2023-04-14T15:26:55.423Z,10.00
2023-04-14T15:31:56.417Z,14.80
2023-04-14T15:36:57.830Z,7.40
2023-04-14T15:41:58.786Z,6.50
2023-04-14T15:47:01.612Z,10.00
2023-04-14T15:52:02.621Z,9.20
2023-04-14T15:57:04.045Z,9.50
2023-04-14T16:02:05.330Z,8.60
2023-04-14T16:07:06.340Z,9.70
2023-04-14T16:12:13.725Z,9.00
2023-04-14T16:17:14.683Z,14.10
2023-04-14T16:22:15.841Z,10.70
2023-04-14T16:27:17.068Z,12.60
2023-04-14T16:32:18.205Z,13.90
2023-04-14T16:37:20.121Z,17.50
2023-04-14T16:42:25.516Z,35.70
2023-04-14T16:47:27.823Z,28.00
2023-04-14T16:52:29.890Z,27.10
2023-04-14T16:57:31.856Z,23.10
2023-04-14T17:02:32.912Z,16.10
2023-04-14T17:07:34.071Z,21.60
2023-04-14T17:12:35.074Z,22.30
2023-04-14T17:17:36.123Z,16.70
2023-04-14T17:22:37.471Z,13.10
2023-04-14T17:27:38.504Z,12.80
2023-04-14T17:32:40.996Z,13.10
2023-04-14T17:37:42.086Z,20.90
2023-04-14T17:42:43.262Z,19.20
2023-04-14T17:47:44.204Z,24.50
2023-04-14T17:52:45.794Z,17.40
2023-04-14T17:57:48.718Z,14.10
2023-04-14T18:02:49.717Z,10.90
2023-04-14T18:07:51.050Z,13.20
2023-04-14T18:12:52.120Z,12.40
2023-04-14T18:18:03.066Z,12.30
2023-04-14T18:23:04.812Z,10.30
2023-04-14T18:28:05.878Z,15.50
2023-04-14T18:33:06.928Z,10.50
2023-04-14T18:38:08.228Z,29.60
2023-04-14T18:43:09.153Z,19.70
2023-04-14T18:48:10.137Z,22.70
2023-04-14T18:53:11.938Z,18.70
2023-04-14T18:58:12.987Z,24.20
2023-04-14T19:03:14.715Z,26.70
2023-04-14T19:08:16.271Z,29.50
2023-04-14T19:13:17.413Z,17.80
2023-04-14T19:18:19.814Z,17.50
2023-04-14T19:23:21.108Z,18.60
2023-04-14T19:28:22.680Z,15.90
2023-04-14T19:33:25.066Z,18.70
2023-04-14T19:38:27.905Z,20.10
2023-04-14T19:43:28.845Z,17.70
2023-04-14T19:48:33.946Z,17.40
2023-04-14T19:53:34.874Z,15.00
2023-04-14T19:58:35.940Z,13.60
2023-04-14T20:03:37.222Z,15.10
2023-04-14T20:08:38.220Z,10.20
2023-04-14T20:13:39.123Z,9.70
2023-04-14T20:18:44.423Z,11.80
2023-04-14T20:23:45.497Z,11.40
2023-04-14T20:28:46.881Z,10.30
2023-04-14T20:33:47.912Z,11.80
2023-04-14T20:38:48.851Z,12.00
2023-04-14T20:43:49.839Z,14.10
2023-04-14T20:48:50.920Z,17.80
2023-04-14T20:53:51.887Z,13.10
2023-04-14T20:58:52.829Z,11.40
2023-04-14T21:03:54.081Z,15.40
2023-04-14T21:08:55.515Z,13.60
2023-04-14T21:15:40.642Z,14.40
2023-04-14T21:19:26.620Z,19.10
2023-04-14T21:24:28.248Z,16.90
2023-04-14T21:29:29.202Z,16.60
2023-04-14T21:34:31.162Z,19.00
2023-04-14T21:39:32.918Z,18.40
2023-04-14T21:44:34.487Z,13.10
2023-04-14T21:49:37.681Z,12.80
2023-04-14T21:54:58.756Z,12.20
2023-04-14T21:59:59.682Z,11.40
2023-04-14T22:05:00.592Z,11.40
2023-04-14T22:10:02.771Z,15.00
2023-04-14T22:15:05.740Z,14.30
2023-04-14T22:20:07.559Z,13.20
2023-04-14T22:25:09.010Z,11.50
2023-04-14T22:30:10.952Z,12.60
2023-04-14T22:35:30.009Z,7.30
2023-04-14T22:40:40.047Z,9.60
2023-04-14T22:45:45.664Z,7.60
2023-04-14T22:50:46.889Z,7.50
2023-04-14T22:55:47.871Z,7.30
2023-04-14T23:00:48.829Z,9.50
2023-04-14T23:05:51.040Z,8.90
2023-04-14T23:10:56.832Z,8.00
2023-04-14T23:16:05.182Z,17.10
2023-04-14T23:21:06.155Z,13.00
2023-04-14T23:26:07.460Z,10.10
2023-04-14T23:31:08.560Z,13.50
2023-04-14T23:36:09.501Z,8.00
2023-04-14T23:41:11.332Z,14.90
2023-04-14T23:46:32.397Z,12.20
2023-04-14T23:51:35.278Z,10.10
2023-04-14T23:56:36.190Z,9.70
